Time;durP1;ratioP1;P1;durP2;ratioP2;P2;SDS_P1;SDS_P2;PMS_P1;PMS_P2;Temp;Humidity;BMP_temperature;BMP_pressure;BME280_temperature;BME280_humidity;BME280_pressure;Samples;Min_cycle;Max_cycle;Signal;HPM_P1;HPM_P2
2023/12/22 00:00:36;;;;;;;12.10;7.20;;;;;;;4.35;100.00;94860.80;106812;1273;22727;-80
2023/12/22 00:03:24;;;;;;;11.60;7.70;;;;;;;4.31;100.00;94866.90;106815;1274;25379;-78
2023/12/22 00:05:52;;;;;;;8.70;5.30;;;;;;;4.26;100.00;94861.27;106790;1281;23461;-78
2023/12/22 00:08:20;;;;;;;11.20;7.60;;;;;;;4.24;100.00;94860.04;106687;1284;24280;-79
2023/12/22 00:10:48;;;;;;;11.50;6.40;;;;;;;4.22;100.00;94852.17;106580;1284;22558;-79
2023/12/22 00:13:16;;;;;;;12.00;6.10;;;;;;;4.20;100.00;94846.98;106718;1271;24982;-79
2023/12/22 00:15:44;;;;;;;13.00;6.10;;;;;;;4.20;100.00;94853.30;106692;1273;22538;-78
2023/12/22 00:18:12;;;;;;;10.60;5.90;;;;;;;4.21;100.00;94857.45;106828;1283;22543;-79
2023/12/22 00:20:40;;;;;;;11.40;6.30;;;;;;;4.22;100.00;94858.08;106808;1281;25360;-78
2023/12/22 00:23:08;;;;;;;14.10;7.50;;;;;;;4.21;100.00;94858.05;106810;1283;22544;-78
2023/12/22 00:25:36;;;;;;;13.70;6.30;;;;;;;4.20;100.00;94864.02;106730;1281;22544;-77
2023/12/22 00:28:04;;;;;;;12.90;5.50;;;;;;;4.18;100.00;94872.12;106603;1284;24413;-78
2023/12/22 00:30:32;;;;;;;11.00;6.20;;;;;;;4.17;100.00;94884.11;106652;1276;24288;-78
2023/12/22 00:33:00;;;;;;;8.50;5.50;;;;;;;4.17;100.00;94902.54;106661;1270;22539;-79
2023/12/22 00:35:28;;;;;;;11.60;6.50;;;;;;;4.16;100.00;94888.17;106618;1283;23134;-79
2023/12/22 00:37:56;;;;;;;12.60;7.00;;;;;;;4.13;100.00;94898.83;106632;1283;22587;-79
2023/12/22 00:40:24;;;;;;;11.70;5.80;;;;;;;4.04;100.00;94903.73;106730;1280;25724;-80
2023/12/22 00:42:52;;;;;;;12.60;6.60;;;;;;;3.96;100.00;94900.95;106696;1283;25503;-79
2023/12/22 00:45:20;;;;;;;12.50;6.60;;;;;;;3.92;100.00;94906.44;106888;1283;25459;-77
2023/12/22 00:47:48;;;;;;;11.90;6.60;;;;;;;3.87;100.00;94906.80;106879;1281;25432;-79
2023/12/22 00:50:16;;;;;;;10.20;5.40;;;;;;;3.82;100.00;94910.83;106665;1283;24740;-79
2023/12/22 00:52:46;;;;;;;9.90;6.10;;;;;;;3.78;100.00;94918.52;106634;1283;22790;-79
2023/12/22 00:55:14;;;;;;;10.70;6.00;;;;;;;3.73;100.00;94930.91;106592;1283;22831;-79
2023/12/22 00:57:42;;;;;;;13.70;6.20;;;;;;;3.70;100.00;94937.86;106495;1283;22666;-79
2023/12/22 01:00:12;;;;;;;10.30;5.80;;;;;;;3.69;100.00;94952.35;106500;1284;25447;-78
2023/12/22 01:02:40;;;;;;;13.20;6.50;;;;;;;3.69;100.00;94949.08;106633;1279;25427;-77
2023/12/22 01:05:08;;;;;;;11.00;5.30;;;;;;;3.65;100.00;94952.52;107042;1283;22729;-77
2023/12/22 01:07:36;;;;;;;9.30;6.60;;;;;;;3.65;100.00;94955.73;107012;1270;22545;-79
2023/12/22 01:10:05;;;;;;;9.30;6.00;;;;;;;3.69;100.00;94946.42;106609;1284;23953;-78
2023/12/22 01:12:33;;;;;;;9.40;5.60;;;;;;;3.68;100.00;94939.31;106679;1270;24436;-79
2023/12/22 01:15:01;;;;;;;12.10;5.80;;;;;;;3.67;100.00;94940.55;106756;1283;22848;-79
2023/12/22 01:17:29;;;;;;;8.70;5.60;;;;;;;3.64;100.00;94933.98;106744;1283;25252;-78
2023/12/22 01:19:57;;;;;;;8.70;5.00;;;;;;;3.63;100.00;94951.92;106780;1273;22565;-77
2023/12/22 01:22:25;;;;;;;11.30;5.60;;;;;;;3.62;100.00;94951.52;106782;1276;22538;-77
2023/12/22 01:24:53;;;;;;;10.20;5.50;;;;;;;3.66;100.00;94944.63;106821;1283;25937;-78
2023/12/22 01:27:21;;;;;;;9.20;4.70;;;;;;;3.64;100.00;94947.71;107063;1271;26127;-79
2023/12/22 01:33:37;;;;;;;11.60;5.80;;;;;;;3.73;100.00;94955.48;106474;1281;23173;-76
2023/12/22 01:36:05;;;;;;;11.10;6.00;;;;;;;3.72;100.00;94950.69;106302;1277;22584;-78
2023/12/22 01:38:33;;;;;;;8.60;5.50;;;;;;;3.70;100.00;94958.91;106727;1279;22553;-77
2023/12/22 01:41:01;;;;;;;11.00;5.20;;;;;;;3.67;100.00;94958.30;106690;1277;22572;-76
2023/12/22 01:43:29;;;;;;;10.60;6.00;;;;;;;3.66;100.00;94966.77;106327;1280;24418;-77
2023/12/22 01:45:59;;;;;;;10.40;6.20;;;;;;;3.65;99.97;94965.08;106328;1269;23896;-77
2023/12/22 01:48:28;;;;;;;12.40;7.30;;;;;;;3.63;99.90;94960.38;106312;1276;22558;-80
2023/12/22 01:51:01;;;;;;;11.20;5.50;;;;;;;3.62;99.85;94968.70;106732;1283;22710;-74
2023/12/22 01:53:30;;;;;;;10.40;5.60;;;;;;;3.61;99.94;94968.76;106400;1283;25435;-77
2023/12/22 01:56:01;;;;;;;9.10;5.70;;;;;;;3.62;100.00;94970.09;106283;1279;25552;-77
2023/12/22 01:58:32;;;;;;;10.40;5.30;;;;;;;3.62;100.00;94962.11;106797;1284;23483;-76
2023/12/22 02:01:04;;;;;;;11.30;4.80;;;;;;;3.60;100.00;94963.91;106441;1266;24229;-77
2023/12/22 02:03:32;;;;;;;8.50;4.90;;;;;;;3.61;100.00;94963.71;106841;1273;22548;-76
2023/12/22 02:06:01;;;;;;;7.80;4.80;;;;;;;3.63;100.00;94954.65;106471;1276;22708;-78
2023/12/22 02:08:33;;;;;;;10.20;4.90;;;;;;;3.63;100.00;94957.69;106425;1267;25327;-76
2023/12/22 02:11:01;;;;;;;9.70;5.30;;;;;;;3.61;99.88;94949.89;106425;1270;23638;-77
2023/12/22 02:13:29;;;;;;;7.50;3.90;;;;;;;3.60;99.54;94953.88;106472;1280;24059;-76
2023/12/22 02:16:04;;;;;;;7.70;4.30;;;;;;;3.56;99.68;94942.92;106377;1271;24519;-76
2023/12/22 02:18:39;;;;;;;7.80;4.10;;;;;;;3.56;99.69;94953.10;106505;1268;22533;-76
2023/12/22 02:21:07;;;;;;;8.90;4.90;;;;;;;3.53;99.57;94946.70;106496;1273;24355;-76
2023/12/22 02:23:35;;;;;;;7.80;4.20;;;;;;;3.51;99.60;94947.70;106305;1270;22831;-76
2023/12/22 02:26:10;;;;;;;11.20;5.70;;;;;;;3.51;99.49;94957.72;106650;1285;22545;-75
2023/12/22 02:28:40;;;;;;;9.10;5.00;;;;;;;3.47;99.06;94969.30;106227;1270;23922;-75
2023/12/22 02:31:22;;;;;;;7.80;5.20;;;;;;;3.41;98.53;94960.27;106230;1271;25252;-76
2023/12/22 02:33:53;;;;;;;9.10;5.60;;;;;;;3.37;98.82;94956.00;106218;1284;25360;-76
2023/12/22 02:36:22;;;;;;;8.10;4.60;;;;;;;3.37;99.24;94967.11;106264;1264;22656;-76
2023/12/22 02:38:53;;;;;;;8.20;5.20;;;;;;;3.35;98.78;94968.54;106132;1274;22555;-75
2023/12/22 02:41:22;;;;;;;9.20;4.90;;;;;;;3.32;97.89;94959.83;106212;1273;22553;-76
2023/12/22 02:43:51;;;;;;;8.10;4.90;;;;;;;3.28;97.80;94959.54;106246;1270;22668;-75
2023/12/22 02:46:19;;;;;;;9.80;5.40;;;;;;;3.28;97.55;94964.41;106253;1273;22564;-75
2023/12/22 02:48:47;;;;;;;11.30;5.00;;;;;;;3.30;97.33;94966.98;106179;1282;24436;-75
2023/12/22 02:51:15;;;;;;;9.50;5.10;;;;;;;3.31;96.29;94963.75;106209;1282;24344;-75
2023/12/22 02:53:43;;;;;;;8.00;4.00;;;;;;;3.30;96.30;94963.09;106214;1284;22664;-74
2023/12/22 02:56:11;;;;;;;9.40;4.40;;;;;;;3.29;95.74;94964.59;106227;1273;25303;-76
2023/12/22 02:58:39;;;;;;;7.30;4.50;;;;;;;3.30;94.87;94966.70;106245;1273;22546;-76
2023/12/22 03:01:07;;;;;;;8.90;4.80;;;;;;;3.32;94.42;94971.62;106266;1273;24217;-77
2023/12/22 03:03:35;;;;;;;13.30;4.90;;;;;;;3.33;93.54;94976.45;106228;1274;25427;-75
2023/12/22 03:06:03;;;;;;;9.90;5.20;;;;;;;3.32;93.69;94964.70;106307;1270;22551;-75
2023/12/22 03:08:31;;;;;;;7.30;5.00;;;;;;;3.32;92.68;94969.81;106308;1284;22547;-75
2023/12/22 03:10:59;;;;;;;9.90;4.50;;;;;;;3.32;92.42;94962.67;106290;1271;24274;-75
2023/12/22 03:13:27;;;;;;;9.00;5.20;;;;;;;3.35;92.19;94973.65;106282;1284;22629;-74
2023/12/22 03:15:55;;;;;;;9.10;4.80;;;;;;;3.34;90.90;94983.27;106252;1277;23980;-76
2023/12/22 03:18:23;;;;;;;8.80;4.70;;;;;;;3.31;89.79;94984.13;106274;1269;22552;-76
2023/12/22 03:20:51;;;;;;;8.40;4.20;;;;;;;3.25;89.25;94972.96;106299;1274;26521;-76
2023/12/22 03:23:18;;;;;;;8.40;5.30;;;;;;;3.26;89.90;94988.05;106308;1283;22544;-75
2023/12/22 03:25:46;;;;;;;9.50;4.70;;;;;;;3.28;89.74;94989.56;106348;1277;22599;-75
2023/12/22 03:28:14;;;;;;;9.40;4.60;;;;;;;3.24;89.29;94990.80;106326;1270;25481;-75
2023/12/22 03:30:42;;;;;;;8.40;4.90;;;;;;;3.20;88.45;94987.39;106343;1270;22582;-76
2023/12/22 03:33:10;;;;;;;9.10;5.60;;;;;;;3.17;88.86;94995.48;106280;1270;25682;-75
2023/12/22 03:35:38;;;;;;;7.50;4.30;;;;;;;3.16;88.83;94988.99;106260;1260;22578;-76
2023/12/22 03:38:06;;;;;;;9.60;5.30;;;;;;;3.20;89.02;94974.90;106318;1269;22601;-75
2023/12/22 03:40:34;;;;;;;8.50;4.50;;;;;;;3.22;88.79;94981.81;106313;1283;25437;-75
2023/12/22 03:43:02;;;;;;;10.50;5.60;;;;;;;3.21;88.30;94989.70;106326;1269;25374;-75
2023/12/22 03:45:30;;;;;;;12.10;5.70;;;;;;;3.18;88.15;94992.64;106261;1270;25136;-75
2023/12/22 03:47:58;;;;;;;8.70;5.00;;;;;;;3.16;87.95;94992.48;106279;1268;24311;-75
2023/12/22 03:50:26;;;;;;;7.60;4.80;;;;;;;3.17;87.91;95006.05;106290;1265;23338;-75
2023/12/22 03:52:54;;;;;;;9.30;4.40;;;;;;;3.18;86.55;94993.01;106282;1276;24260;-75
2023/12/22 03:55:22;;;;;;;9.60;4.70;;;;;;;3.19;85.40;94993.12;106316;1279;22558;-75
2023/12/22 03:57:50;;;;;;;10.70;5.70;;;;;;;3.19;84.95;94988.09;106267;1279;22539;-74
2023/12/22 04:00:18;;;;;;;9.40;5.00;;;;;;;3.17;84.17;94984.84;106275;1268;22567;-75
2023/12/22 04:02:46;;;;;;;11.00;5.80;;;;;;;3.15;83.25;94985.38;106256;1268;24422;-76
2023/12/22 04:05:14;;;;;;;11.70;5.30;;;;;;;3.14;82.93;94999.38;106377;1271;22537;-75
2023/12/22 04:08:08;;;;;;;11.40;5.10;;;;;;;3.15;82.33;94989.02;106373;1281;23970;-75
2023/12/22 04:10:36;;;;;;;15.40;5.30;;;;;;;3.16;82.02;95000.53;106325;1281;22568;-76
2023/12/22 04:13:03;;;;;;;11.20;5.20;;;;;;;3.15;82.71;94980.91;106649;1283;24263;-75
2023/12/22 04:15:31;;;;;;;7.30;5.00;;;;;;;3.19;83.72;94979.77;106244;1270;22530;-76
2023/12/22 04:17:59;;;;;;;12.40;5.50;;;;;;;3.22;83.50;94964.11;106193;1276;24234;-75
2023/12/22 04:20:27;;;;;;;10.10;4.70;;;;;;;3.22;82.98;94961.43;106370;1280;22551;-76
2023/12/22 04:22:55;;;;;;;9.20;4.90;;;;;;;3.18;83.74;94965.80;106612;1273;22536;-75
2023/12/22 04:25:25;;;;;;;10.30;4.80;;;;;;;3.16;83.31;94968.55;106314;1284;22656;-76
2023/12/22 04:27:52;;;;;;;11.10;5.70;;;;;;;3.12;83.41;95003.27;106293;1284;22624;-76
2023/12/22 04:30:20;;;;;;;12.10;4.70;;;;;;;3.08;82.94;94985.48;106359;1284;24328;-76
2023/12/22 04:32:48;;;;;;;10.60;5.00;;;;;;;3.02;83.80;94981.15;106328;1283;22553;-75
2023/12/22 04:35:16;;;;;;;9.30;4.90;;;;;;;2.91;84.73;94984.27;106286;1276;22551;-76
2023/12/22 04:37:44;;;;;;;12.70;5.80;;;;;;;2.78;85.73;94972.05;106320;1270;25510;-76
2023/12/22 04:40:13;;;;;;;10.00;4.90;;;;;;;2.68;86.30;94971.80;106327;1280;23895;-75
2023/12/22 04:42:42;;;;;;;9.80;4.50;;;;;;;2.62;86.72;94970.79;106421;1269;22635;-76
2023/12/22 04:45:10;;;;;;;7.60;4.80;;;;;;;2.58;87.47;94974.77;106556;1277;25435;-76
2023/12/22 04:47:38;;;;;;;11.10;5.50;;;;;;;2.58;87.68;94977.90;106324;1271;23896;-75
2023/12/22 04:50:06;;;;;;;11.60;5.50;;;;;;;2.56;87.95;94977.51;106285;1271;25260;-74
2023/12/22 04:52:34;;;;;;;12.60;5.90;;;;;;;2.56;87.98;94987.69;106368;1276;22543;-74
2023/12/22 04:55:02;;;;;;;15.60;7.60;;;;;;;2.48;89.22;94999.14;106333;1273;22648;-75
2023/12/22 04:57:30;;;;;;;8.30;4.60;;;;;;;2.35;90.59;95013.92;106203;1269;25451;-76
2023/12/22 04:59:59;;;;;;;10.30;5.20;;;;;;;2.21;92.24;95032.74;106290;1270;22559;-75
2023/12/22 05:02:29;;;;;;;11.40;6.20;;;;;;;2.06;94.03;95044.77;106310;1271;22698;-76
2023/12/22 05:04:56;;;;;;;6.80;4.40;;;;;;;1.77;97.24;95043.86;106398;1283;25393;-76
2023/12/22 05:07:25;;;;;;;5.30;4.10;;;;;;;1.20;99.86;95055.62;106371;1283;22671;-75
2023/12/22 05:09:54;;;;;;;4.50;3.40;;;;;;;0.73;100.00;95044.02;106271;1271;23612;-75
2023/12/22 05:12:22;;;;;;;5.40;3.00;;;;;;;0.46;100.00;95038.04;106355;1268;25431;-75
2023/12/22 05:14:50;;;;;;;6.80;4.00;;;;;;;0.30;100.00;95039.91;106310;1279;22555;-76
2023/12/22 05:17:18;;;;;;;4.90;3.70;;;;;;;0.20;100.00;95037.83;106294;1276;22686;-75
2023/12/22 05:19:46;;;;;;;5.60;4.20;;;;;;;0.15;100.00;95049.59;106222;1281;22732;-74
2023/12/22 05:22:13;;;;;;;4.90;4.00;;;;;;;0.07;100.00;95056.05;106289;1273;22540;-75
2023/12/22 05:24:41;;;;;;;5.30;4.40;;;;;;;-0.07;100.00;95054.89;106354;1283;22786;-75
2023/12/22 05:27:10;;;;;;;5.10;3.80;;;;;;;-0.15;100.00;95063.05;106516;1273;25443;-76
2023/12/22 05:29:38;;;;;;;5.60;4.30;;;;;;;-0.25;100.00;95066.77;106439;1268;22554;-75
2023/12/22 05:32:06;;;;;;;4.10;3.60;;;;;;;-0.30;100.00;95078.69;106363;1265;25414;-75
2023/12/22 05:34:34;;;;;;;5.30;3.70;;;;;;;-0.31;100.00;95090.09;106337;1283;23897;-75
2023/12/22 05:37:02;;;;;;;6.70;4.20;;;;;;;-0.45;100.00;95075.93;106236;1269;22541;-75
2023/12/22 05:39:30;;;;;;;7.60;4.20;;;;;;;-0.60;100.00;95054.29;106120;1269;22648;-75
2023/12/22 05:41:58;;;;;;;6.00;4.00;;;;;;;-0.64;100.00;95056.77;106220;1271;22541;-75
2023/12/22 05:44:29;;;;;;;8.90;4.40;;;;;;;-0.65;100.00;95056.20;106299;1280;23134;-75
2023/12/22 05:46:57;;;;;;;7.20;4.60;;;;;;;-0.64;100.00;95056.71;106288;1277;24308;-74
2023/12/22 05:49:25;;;;;;;7.20;4.60;;;;;;;-0.62;100.00;95058.52;106301;1272;24368;-75
2023/12/22 05:51:54;;;;;;;8.10;4.80;;;;;;;-0.61;100.00;95055.29;106292;1268;22553;-75
2023/12/22 05:54:23;;;;;;;5.10;3.80;;;;;;;-0.59;100.00;95064.45;106336;1271;25429;-76
2023/12/22 05:56:51;;;;;;;7.50;5.10;;;;;;;-0.56;100.00;95060.52;106322;1276;24235;-76
2023/12/22 05:59:24;;;;;;;6.90;4.50;;;;;;;-0.53;100.00;95064.84;106318;1270;22960;-76
2023/12/22 06:01:55;;;;;;;8.40;5.30;;;;;;;-0.51;100.00;95060.73;106719;1277;22536;-76
2023/12/22 06:04:23;;;;;;;6.80;4.20;;;;;;;-0.52;100.00;95059.25;106698;1283;22546;-76
2023/12/22 06:06:51;;;;;;;9.40;5.20;;;;;;;-0.51;100.00;95060.09;106384;1276;22794;-76
2023/12/22 06:09:20;;;;;;;8.50;4.70;;;;;;;-0.51;100.00;95058.75;106677;1277;22768;-76
2023/12/22 06:11:48;;;;;;;7.20;5.00;;;;;;;-0.50;100.00;95055.04;106650;1277;24254;-77
2023/12/22 06:14:16;;;;;;;7.60;4.50;;;;;;;-0.51;100.00;95054.06;106727;1283;25375;-77
2023/12/22 06:16:44;;;;;;;8.20;5.60;;;;;;;-0.50;100.00;95058.11;106280;1283;22993;-77
2023/12/22 06:19:13;;;;;;;10.00;5.70;;;;;;;-0.50;100.00;95063.83;106310;1261;23727;-77
2023/12/22 06:21:41;;;;;;;6.60;4.90;;;;;;;-0.51;100.00;95062.67;106206;1281;25531;-76
2023/12/22 06:24:09;;;;;;;7.10;4.90;;;;;;;-0.54;100.00;95074.34;106710;1275;25544;-77
2023/12/22 06:26:37;;;;;;;7.70;5.20;;;;;;;-0.54;100.00;95079.20;106242;1279;22548;-76
2023/12/22 06:29:05;;;;;;;9.90;5.90;;;;;;;-0.55;100.00;95092.77;106260;1275;23303;-76
2023/12/22 06:31:33;;;;;;;10.00;6.40;;;;;;;-0.56;100.00;95093.48;106281;1283;25252;-76
2023/12/22 06:34:02;;;;;;;11.60;6.60;;;;;;;-0.56;100.00;95100.51;106192;1273;22547;-75
2023/12/22 06:36:31;;;;;;;9.60;6.40;;;;;;;-0.58;100.00;95112.06;106295;1270;25420;-75
2023/12/22 06:38:58;;;;;;;10.00;6.50;;;;;;;-0.58;100.00;95108.02;106327;1278;22549;-75
2023/12/22 06:41:29;;;;;;;12.10;6.90;;;;;;;-0.59;100.00;95114.63;106361;1283;22641;-77
2023/12/22 06:44:01;;;;;;;14.00;8.00;;;;;;;-0.58;100.00;95114.52;106312;1271;22533;-76
2023/12/22 06:46:30;;;;;;;12.00;7.30;;;;;;;-0.55;100.00;95129.30;106392;1271;24224;-75
2023/12/22 06:48:59;;;;;;;12.20;6.40;;;;;;;-0.53;100.00;95137.73;106446;1281;25502;-76
2023/12/22 06:51:35;;;;;;;15.60;6.80;;;;;;;-0.48;100.00;95131.08;106240;1277;25838;-77
2023/12/22 06:54:04;;;;;;;11.00;7.60;;;;;;;-0.42;100.00;95133.04;106336;1275;22470;-75
2023/12/22 06:56:34;;;;;;;11.70;6.60;;;;;;;-0.41;100.00;95124.73;106175;1284;22547;-75
2023/12/22 06:59:03;;;;;;;12.30;6.00;;;;;;;-0.38;100.00;95133.20;106355;1271;22547;-76
2023/12/22 07:01:34;;;;;;;10.40;6.30;;;;;;;-0.35;100.00;95129.73;106381;1271;22692;-76
2023/12/22 07:04:04;;;;;;;11.90;6.00;;;;;;;-0.31;100.00;95129.88;106345;1269;24295;-77
2023/12/22 07:06:34;;;;;;;11.40;7.40;;;;;;;-0.28;100.00;95132.70;106342;1271;22679;-76
2023/12/22 07:09:11;;;;;;;10.60;6.10;;;;;;;-0.29;100.00;95130.23;106410;1270;22574;-76
2023/12/22 07:11:58;;;;;;;12.70;6.50;;;;;;;-0.29;100.00;95122.17;106265;1277;24246;-77
2023/12/22 07:14:26;;;;;;;14.00;7.00;;;;;;;-0.30;100.00;95128.48;106278;1278;26682;-77
2023/12/22 07:16:54;;;;;;;10.30;6.80;;;;;;;-0.29;100.00;95132.33;106334;1269;22548;-77
2023/12/22 07:19:22;;;;;;;11.30;7.10;;;;;;;-0.27;100.00;95132.86;106743;1268;23272;-78
2023/12/22 07:21:50;;;;;;;13.80;6.70;;;;;;;-0.23;100.00;95131.45;106511;1276;22539;-79
2023/12/22 07:24:19;;;;;;;12.40;7.60;;;;;;;-0.19;100.00;95130.36;106777;1283;22593;-76
2023/12/22 07:26:47;;;;;;;13.20;7.40;;;;;;;-0.16;100.00;95133.10;106439;1271;22502;-77
2023/12/22 07:29:15;;;;;;;17.60;7.20;;;;;;;-0.12;100.00;95132.08;106370;1273;22550;-76
2023/12/22 07:31:43;;;;;;;13.60;7.70;;;;;;;-0.09;100.00;95135.81;106854;1271;22647;-78
2023/12/22 07:34:14;;;;;;;15.40;7.60;;;;;;;-0.04;100.00;95141.58;106600;1273;23916;-75
2023/12/22 07:36:43;;;;;;;14.70;7.40;;;;;;;-0.02;100.00;95139.27;106635;1268;23384;-77
2023/12/22 07:39:22;;;;;;;14.20;8.20;;;;;;;-0.02;100.00;95144.26;107169;1259;22748;-76
2023/12/22 07:41:50;;;;;;;12.80;7.30;;;;;;;-0.01;100.00;95146.34;106500;1271;24307;-76
2023/12/22 07:44:18;;;;;;;12.00;7.60;;;;;;;0.02;100.00;95144.74;106447;1280;25498;-76
2023/12/22 07:46:56;;;;;;;13.90;9.70;;;;;;;0.02;100.00;95148.14;106379;1268;22561;-76
2023/12/22 07:49:24;;;;;;;33.40;21.10;;;;;;;0.04;100.00;95149.25;106517;1268;22554;-78
2023/12/22 07:51:53;;;;;;;21.60;14.20;;;;;;;0.05;100.00;95154.14;106743;1279;23890;-76
2023/12/22 07:54:21;;;;;;;34.10;16.30;;;;;;;0.06;100.00;95149.67;106325;1269;24255;-76
2023/12/22 07:56:49;;;;;;;47.70;25.10;;;;;;;0.10;100.00;95149.59;106285;1283;24235;-76
2023/12/22 07:59:17;;;;;;;35.70;17.00;;;;;;;0.15;100.00;95149.25;106322;1268;22787;-76
2023/12/22 08:01:58;;;;;;;29.80;14.80;;;;;;;0.18;100.00;95153.64;106296;1271;22537;-76
2023/12/22 08:04:26;;;;;;;37.90;14.70;;;;;;;0.19;100.00;95159.44;106256;1271;22803;-78
2023/12/22 08:06:54;;;;;;;51.50;23.00;;;;;;;0.22;100.00;95153.98;106672;1269;24348;-75
2023/12/22 08:09:22;;;;;;;33.70;16.10;;;;;;;0.28;100.00;95155.70;106676;1261;24259;-76
2023/12/22 08:11:52;;;;;;;22.30;13.60;;;;;;;0.32;100.00;95154.40;106649;1270;25338;-76
2023/12/22 08:14:21;;;;;;;19.90;11.60;;;;;;;0.38;100.00;95149.33;106357;1273;24390;-77
2023/12/22 08:16:49;;;;;;;14.00;10.50;;;;;;;0.44;100.00;95155.34;106321;1268;22787;-77
2023/12/22 08:19:17;;;;;;;13.70;9.40;;;;;;;0.51;100.00;95151.29;106751;1271;23302;-77
2023/12/22 08:21:46;;;;;;;29.00;12.80;;;;;;;0.62;100.00;95156.88;106285;1265;22591;-76
2023/12/22 08:24:17;;;;;;;20.70;13.90;;;;;;;0.72;100.00;95157.63;106297;1270;25427;-77
2023/12/22 08:26:50;;;;;;;15.60;10.40;;;;;;;0.77;100.00;95156.91;106710;1268;24109;-75
2023/12/22 08:29:19;;;;;;;13.70;10.60;;;;;;;0.80;100.00;95155.69;106298;1269;22533;-77
2023/12/22 08:31:48;;;;;;;13.20;9.90;;;;;;;0.83;100.00;95157.30;106350;1269;22607;-75
2023/12/22 08:34:16;;;;;;;13.70;11.50;;;;;;;0.86;100.00;95154.60;106367;1276;24284;-77
2023/12/22 08:36:44;;;;;;;15.60;11.10;;;;;;;0.86;100.00;95153.33;106337;1271;25310;-75
2023/12/22 08:39:13;;;;;;;22.60;13.50;;;;;;;0.88;100.00;95149.72;106350;1269;22545;-75
2023/12/22 08:41:42;;;;;;;15.70;11.50;;;;;;;0.93;100.00;95152.77;106328;1271;22573;-76
2023/12/22 08:44:11;;;;;;;20.30;14.10;;;;;;;0.96;100.00;95153.90;106752;1262;22694;-76
2023/12/22 08:46:39;;;;;;;18.00;12.50;;;;;;;0.98;100.00;95158.60;106387;1283;25449;-75
2023/12/22 08:49:07;;;;;;;10.00;7.40;;;;;;;1.00;100.00;95153.64;106377;1283;25493;-76
2023/12/22 08:51:35;;;;;;;11.50;8.20;;;;;;;1.03;100.00;95164.77;106350;1271;24345;-77
2023/12/22 08:54:04;;;;;;;13.90;8.80;;;;;;;1.04;100.00;95166.08;106804;1277;22622;-76
2023/12/22 08:56:32;;;;;;;11.80;7.40;;;;;;;1.01;100.00;95177.11;106362;1284;22665;-77
2023/12/22 08:59:00;;;;;;;10.40;6.70;;;;;;;0.94;100.00;95182.97;106455;1283;22540;-76
2023/12/22 09:01:28;;;;;;;13.90;9.00;;;;;;;0.78;100.00;95193.31;106735;1283;22584;-75
2023/12/22 09:03:56;;;;;;;11.70;8.70;;;;;;;0.64;100.00;95193.71;106400;1283;23892;-76
2023/12/22 09:06:24;;;;;;;11.90;7.80;;;;;;;0.52;100.00;95182.66;107021;1283;25262;-76
2023/12/22 09:08:53;;;;;;;9.10;7.10;;;;;;;0.45;100.00;95183.16;106416;1277;24226;-76
2023/12/22 09:11:22;;;;;;;12.30;7.30;;;;;;;0.39;100.00;95177.11;106416;1284;22543;-75
2023/12/22 09:13:50;;;;;;;11.40;8.60;;;;;;;0.37;100.00;95172.23;106355;1283;24276;-75
2023/12/22 09:16:22;;;;;;;11.60;7.60;;;;;;;0.36;100.00;95168.70;106443;1268;25317;-75
2023/12/22 09:18:51;;;;;;;14.90;8.90;;;;;;;0.39;100.00;95176.64;107198;1268;23239;-76
2023/12/22 09:21:19;;;;;;;13.80;11.10;;;;;;;0.40;100.00;95167.98;106430;1283;23897;-76
2023/12/22 09:23:47;;;;;;;12.50;8.90;;;;;;;0.43;100.00;95171.78;106430;1271;23305;-77
2023/12/22 09:26:15;;;;;;;12.00;8.60;;;;;;;0.48;100.00;95176.18;106478;1283;24229;-76
2023/12/22 09:28:45;;;;;;;10.70;8.00;;;;;;;0.51;100.00;95179.75;106386;1283;25260;-76
2023/12/22 09:31:14;;;;;;;16.20;8.50;;;;;;;0.54;100.00;95158.77;106649;1268;22615;-75
2023/12/22 09:33:42;;;;;;;15.50;12.40;;;;;;;0.58;100.00;95146.20;106249;1283;22551;-76
2023/12/22 09:36:11;;;;;;;18.30;11.30;;;;;;;0.64;100.00;95143.84;106307;1283;25589;-76
2023/12/22 09:38:41;;;;;;;17.20;12.00;;;;;;;0.70;100.00;95135.33;106217;1274;22661;-76
2023/12/22 09:41:10;;;;;;;14.20;12.00;;;;;;;0.75;100.00;95139.29;106665;1269;23406;-75
2023/12/22 09:43:40;;;;;;;12.30;10.00;;;;;;;0.76;100.00;95148.83;106368;1278;22783;-75
2023/12/22 09:46:10;;;;;;;12.80;9.40;;;;;;;0.74;100.00;95148.80;106268;1283;23026;-76
2023/12/22 09:48:39;;;;;;;16.30;13.40;;;;;;;0.71;100.00;95156.17;106653;1283;24271;-76
2023/12/22 09:51:08;;;;;;;14.40;10.60;;;;;;;0.69;100.00;95155.86;106390;1268;24440;-75
2023/12/22 09:53:39;;;;;;;10.80;8.40;;;;;;;0.65;100.00;95154.35;106136;1271;160964;-75
2023/12/22 09:56:08;;;;;;;15.50;10.20;;;;;;;0.66;100.00;95149.23;106357;1269;22555;-75
2023/12/22 09:58:37;;;;;;;13.60;9.70;;;;;;;0.70;100.00;95147.55;106351;1283;23366;-75
2023/12/22 10:01:07;;;;;;;11.50;7.80;;;;;;;0.72;100.00;95142.20;106385;1281;25253;-75
2023/12/22 10:03:37;;;;;;;16.00;9.30;;;;;;;0.71;100.00;95136.09;106306;1268;22558;-76
2023/12/22 10:06:05;;;;;;;17.00;11.20;;;;;;;0.72;100.00;95135.64;106354;1270;24386;-76
2023/12/22 10:08:36;;;;;;;21.10;14.00;;;;;;;0.75;100.00;95127.03;106696;1270;24226;-75
2023/12/22 10:11:04;;;;;;;23.90;17.60;;;;;;;0.79;100.00;95130.02;106365;1270;22616;-75
2023/12/22 10:13:36;;;;;;;11.70;9.40;;;;;;;0.84;100.00;95137.41;106362;1270;24292;-76
2023/12/22 10:16:05;;;;;;;17.50;13.00;;;;;;;0.90;100.00;95132.86;106370;1268;22541;-76
2023/12/22 10:18:33;;;;;;;14.30;10.80;;;;;;;1.02;100.00;95145.38;106395;1273;25396;-74
2023/12/22 10:21:02;;;;;;;14.80;10.80;;;;;;;1.12;100.00;95133.23;106364;1283;22551;-76
2023/12/22 10:23:30;;;;;;;12.20;8.60;;;;;;;1.24;100.00;95133.40;106421;1268;23234;-75
2023/12/22 10:26:01;;;;;;;14.50;10.00;;;;;;;1.38;100.00;95134.23;106346;1284;23908;-76
2023/12/22 10:28:29;;;;;;;19.10;11.80;;;;;;;1.53;100.00;95132.28;106342;1283;24354;-75
2023/12/22 10:31:03;;;;;;;15.70;12.80;;;;;;;1.57;100.00;95126.17;106143;1284;22558;-74
2023/12/22 10:33:32;;;;;;;13.20;8.90;;;;;;;1.64;100.00;95123.48;106270;1274;22543;-75
2023/12/22 10:36:01;;;;;;;12.30;9.50;;;;;;;1.69;100.00;95124.98;106276;1273;25527;-74
2023/12/22 10:38:36;;;;;;;13.70;10.40;;;;;;;1.73;100.00;95131.08;106255;1283;24218;-76
2023/12/22 10:41:06;;;;;;;12.40;8.70;;;;;;;1.75;100.00;95129.48;106297;1279;22673;-76
2023/12/22 10:43:38;;;;;;;12.60;9.00;;;;;;;1.77;100.00;95124.16;106260;1273;22547;-75
2023/12/22 10:46:10;;;;;;;12.40;8.10;;;;;;;1.79;100.00;95107.02;106375;1268;25532;-75
2023/12/22 10:48:40;;;;;;;14.70;8.80;;;;;;;1.78;100.00;95105.20;106343;1271;25199;-76
2023/12/22 10:51:11;;;;;;;17.10;13.00;;;;;;;1.77;100.00;95103.29;106671;1262;22645;-75
2023/12/22 10:53:41;;;;;;;25.40;21.00;;;;;;;1.79;100.00;95095.23;106211;1283;22547;-74
2023/12/22 10:56:10;;;;;;;14.70;9.60;;;;;;;1.77;100.00;95108.35;106582;1281;22550;-74
2023/12/22 10:58:39;;;;;;;17.30;12.40;;;;;;;1.72;100.00;95101.52;106161;1277;22659;-76
2023/12/22 11:01:09;;;;;;;21.50;15.90;;;;;;;1.68;100.00;95104.06;106274;1260;23599;-76
2023/12/22 11:03:39;;;;;;;12.00;7.80;;;;;;;1.65;100.00;95123.48;106355;1265;22536;-76
2023/12/22 11:06:10;;;;;;;12.60;7.90;;;;;;;1.46;100.00;95136.57;106272;1280;25563;-75
2023/12/22 11:08:42;;;;;;;11.10;6.70;;;;;;;1.18;100.00;95147.86;106366;1271;22677;-76
2023/12/22 11:11:19;;;;;;;13.50;7.90;;;;;;;0.92;100.00;95162.11;106703;1270;25342;-76
2023/12/22 11:13:48;;;;;;;10.00;6.80;;;;;;;0.73;100.00;95157.45;106270;1277;25395;-77
2023/12/22 11:16:18;;;;;;;9.80;6.40;;;;;;;0.58;100.00;95165.23;106324;1278;23259;-76
2023/12/22 11:18:48;;;;;;;9.60;6.60;;;;;;;0.40;100.00;95158.77;106358;1275;22659;-76
2023/12/22 11:21:19;;;;;;;10.20;7.30;;;;;;;0.24;100.00;95148.54;106292;1277;22665;-76
2023/12/22 11:23:49;;;;;;;9.20;7.20;;;;;;;0.16;100.00;95160.91;106336;1275;25504;-76
2023/12/22 11:26:18;;;;;;;14.00;11.10;;;;;;;0.09;100.00;95124.46;106375;1277;22550;-75
2023/12/22 11:28:49;;;;;;;10.40;6.60;;;;;;;0.07;100.00;95141.93;106276;1277;25381;-75
2023/12/22 11:31:18;;;;;;;9.30;7.40;;;;;;;0.09;100.00;95125.09;106431;1284;22635;-76